Campanya meteocatpedra

Dades de l'estació automàtica l'Ametlla de Mar

?
?
Resum diari 22:00 TU
Dades diàries de l'estació meteorològica
Temperatura mitjana 16.6 °C
Temperatura màxima 21.4 °C 14:19 TU
Temperatura mínima 13.3 °C 5:08 TU
Humitat relativa mitjana 59%
Precipitació acumulada 0.0 mm
Ratxa màxima del vent (2 m) 28.8 km/h - 346º 7:53 TU
Irradiació solar global 14.3 MJ/m2

El tram horari està expressat en Temps Universal (TU). Cal sumar una hora en horari d'hivern i dues en horari d'estiu per passar a l'hora oficial.

l'Ametlla de Mar

Metadades estació meteorol´gica
Municipi L'Ametlla de Mar
Comarca Baix Ebre
Altitud 93 m
Data alta 29.08.1995
Estat actual Operativa
Dades de període
Període
TU
TM
°C
TX
°C
TN
°C
HRM
%
PPT
mm
VVM (2 m)
km/h
DVM (2 m)
graus
VVX (2 m)
km/h
RS
W/m2
00:00 - 00:30 15.5 15.7 15.3 55 0.0 6.8 331 20.2 0
00:30 - 01:00 15.4 15.7 15.2 55 0.0 7.9 334 20.5 0
01:00 - 01:30 14.9 15.2 14.6 57 0.0 8.3 334 24.1 0
01:30 - 02:00 14.6 14.7 14.4 59 0.0 9.4 343 22.3 0
02:00 - 02:30 14.6 14.8 14.4 58 0.0 9.0 336 23.0 0
02:30 - 03:00 14.2 14.4 14.0 60 0.0 5.8 324 18.7 0
03:00 - 03:30 13.7 14.0 13.4 62 0.0 5.0 320 15.1 0
03:30 - 04:00 13.6 13.7 13.5 63 0.0 10.4 340 26.6 0
04:00 - 04:30 13.8 13.9 13.6 62 0.0 10.4 339 27.4 0
04:30 - 05:00 13.6 13.7 13.4 62 0.0 7.9 330 25.6 0
05:00 - 05:30 13.4 13.5 13.3 63 0.0 7.6 327 22.7 0
05:30 - 06:00 13.5 13.6 13.5 63 0.0 8.6 328 21.6 0
06:00 - 06:30 13.5 13.5 13.4 63 0.0 7.6 325 20.5 5
06:30 - 07:00 13.8 14.1 13.5 62 0.0 7.2 323 22.0 46
07:00 - 07:30 14.3 14.5 14.1 62 0.0 6.8 320 25.2 127
07:30 - 08:00 14.9 15.3 14.6 60 0.0 7.6 326 28.8 211
08:00 - 08:30 15.6 15.9 15.3 59 0.0 8.6 329 25.2 295
08:30 - 09:00 16.3 16.6 16.0 58 0.0 6.8 323 19.8 372
09:00 - 09:30 16.9 17.4 16.6 57 0.0 7.6 320 25.6 441
09:30 - 10:00 17.5 17.8 17.2 56 0.0 7.2 318 19.4 501
10:00 - 10:30 17.9 18.2 17.6 56 0.0 8.3 324 24.1 548
10:30 - 11:00 18.6 19.1 18.2 54 0.0 7.6 325 22.7 583
11:00 - 11:30 19.1 19.6 18.8 53 0.0 8.6 330 24.5 602
11:30 - 12:00 19.8 20.4 19.4 52 0.0 8.6 332 23.8 608
12:00 - 12:30 20.1 20.3 20.0 51 0.0 6.5 324 20.5 599
12:30 - 13:00 20.6 21.0 20.2 51 0.0 6.5 320 24.1 577
13:00 - 13:30 20.8 21.1 20.5 50 0.0 6.8 327 20.9 539
13:30 - 14:00 20.9 21.1 20.7 49 0.0 6.5 327 22.3 489
14:00 - 14:30 21.2 21.4 21.0 50 0.0 5.8 331 16.6 430
14:30 - 15:00 21.1 21.3 21.0 50 0.0 6.1 332 16.2 358
15:00 - 15:30 20.9 21.0 20.7 50 0.0 6.5 332 18.7 278
15:30 - 16:00 20.6 20.6 20.4 51 0.0 5.4 327 15.8 191
16:00 - 16:30 20.2 20.4 19.8 51 0.0 4.3 317 18.0 108
16:30 - 17:00 19.2 19.7 18.6 54 0.0 2.9 307 12.6 30
17:00 - 17:30 17.9 18.5 17.3 60 0.0 2.2 297 6.8 2
17:30 - 18:00 16.9 17.3 16.4 63 0.0 2.9 283 10.4 0
18:00 - 18:30 16.0 16.3 15.8 66 0.0 1.1 278 7.6 0
18:30 - 19:00 15.7 15.8 15.4 68 0.0 1.4 261 5.8 0
19:00 - 19:30 14.9 15.4 14.7 71 0.0 2.2 271 5.8 0
19:30 - 20:00 15.0 15.8 14.6 70 0.0 2.9 263 7.9 0
20:00 - 20:30 15.1 15.3 14.9 70 0.0 3.2 256 7.2 0
20:30 - 21:00 15.1 15.2 14.9 70 0.0 3.2 245 7.6 0
21:00 - 21:30 14.9 15.3 14.8 70 0.0 3.6 274 9.4 0
21:30 - 22:00 15.4 15.8 14.7 67 0.0 3.6 266 8.6 0
22:00 - 22:30 15.3 15.8 14.9 67 0.0 4.0 266 9.7 0
22:30 - 23:00 (s/d) (s/d) (s/d) (s/d) (s/d) (s/d) (s/d) (s/d) (s/d)

Les dades en taronja només han passat un control de qualitat automàtic. Resta pendent la seva validació definitiva.